Renan.

Renan.

Pilote de chasse dans l’armée de l’air.
Instructeur voltige
Pilote Renan - Team Sparflex - Fly and Fun

Voir toute les actualités.

Patrouille Sparflex - figure aérienne - Fly and Fun
Patrouille Sparflex - figure aérienne - Fly and Fun
METAR :

LFQA 171330Z AUTO 14006KT 110V170 CAVOK 13/06 Q1020


vue en direct sur l'aérodrome
mentions légales politique de confidentialité
Cochet Concept
cx